PAKH

Akhiok Airport

Akhiok, Alaska, USA
METAR PAKH 141856Z AUTO 32020G35KT 10SM FEW031 12/06 A3005 RMK AO2 PK WND 32035/1847 SLP176 T01170056 $
Observed Flight Rules
Aug-14 @ 18:56 UTC (59 minutes ago) Visual Flight Rules
Wind Visibility Clouds
320° at 20 knots
 Gusting to 35 knots
10 miles
  • Few at 3,100' AGL
Temperatures Readings
Current 12°C / 54°F
Dewpoint 6°C / 43°F
Humidity 67%
Altimeter 30.05" Hg
Pressure 1017.6 hPa
Elevation 14
METAR PAKH 141856Z AUTO 32020G35KT 10SM FEW031 12/06 A3005 RMK AO2 PK WND 32035/1847 SLP176 T01170056 $
Observed Flight Rules
Aug-14 @ 18:56 UTC
(59 minutes ago)
VFR
Wind Visibility
320° at 20 knots
 Gusting to 35 knots
10 miles
Clouds
  • Few at 3,100' AGL
Temperature Dewpoint
12°C / 54°F 6°C / 43°F
Humidity Altimeter Pressure
67% 30.05" Hg 1017.6 hPa